createdAt,value
2022-09-22T06:27:41.602Z,101389.75
2022-09-22T06:30:11.111Z,101378.59
2022-09-22T06:32:40.213Z,101380.09
2022-09-22T06:35:08.664Z,101371.66
2022-09-22T06:37:38.470Z,101370.59
2022-09-22T06:40:08.173Z,101375.44
2022-09-22T06:42:36.281Z,101332.53
2022-09-22T06:45:06.077Z,101369.44
2022-09-22T06:47:33.738Z,101367.06
2022-09-22T06:50:05.452Z,101361.66
2022-09-22T06:52:36.407Z,101352.38
2022-09-22T06:55:05.726Z,101362.13
2022-09-22T06:57:34.309Z,101330.47
2022-09-22T07:00:03.777Z,101341.22
2022-09-22T07:02:33.620Z,101351.66
2022-09-22T07:05:02.168Z,101235.69
2022-09-22T07:07:32.007Z,101061.81
2022-09-22T07:09:59.794Z,101268.81
2022-09-22T07:12:28.594Z,101358.69
2022-09-22T07:14:57.943Z,101122.13
2022-09-22T07:17:31.751Z,101357.16
2022-09-22T07:20:06.644Z,101367.81
2022-09-22T07:22:39.873Z,101336.47
2022-09-22T07:25:08.931Z,101366.91
2022-09-22T07:27:36.666Z,101284.56
2022-09-22T07:30:05.631Z,101354.22
2022-09-22T07:32:35.030Z,101324.06
2022-09-22T07:35:04.364Z,101359.69
2022-09-22T07:37:33.120Z,101173.47
2022-09-22T07:40:02.405Z,101308.66
2022-09-22T07:42:30.214Z,101347.69
2022-09-22T07:45:16.173Z,101345.91
2022-09-22T07:48:02.990Z,101314.09
2022-09-22T07:50:32.131Z,101352.31
2022-09-22T07:52:59.843Z,101312.88
2022-09-22T07:55:27.536Z,101349.25
2022-09-22T07:57:56.826Z,101329.09
2022-09-22T08:00:25.931Z,101340.94
2022-09-22T08:02:55.367Z,101347.31
2022-09-22T08:05:24.574Z,101349.94
2022-09-22T08:07:57.086Z,101290.38
2022-09-22T08:10:26.142Z,101333.75
2022-09-22T08:12:54.198Z,101340.34
2022-09-22T08:15:26.837Z,101108.94
2022-09-22T08:17:57.902Z,101161.63
2022-09-22T08:20:28.804Z,101298.94
2022-09-22T08:23:02.925Z,101339.59
2022-09-22T08:25:30.791Z,100975.81
2022-09-22T08:28:00.141Z,101292.28
2022-09-22T08:30:27.919Z,101331.47
2022-09-22T08:32:55.869Z,101269.03
2022-09-22T08:35:23.644Z,101324.25
2022-09-22T08:37:51.599Z,101325.03
2022-09-22T08:40:24.028Z,101324.59
2022-09-22T08:42:54.330Z,101263.00
2022-09-22T08:45:30.223Z,101208.38
2022-09-22T08:48:33.583Z,101323.09
2022-09-22T08:51:23.854Z,101323.47
2022-09-22T08:54:03.815Z,101289.13
2022-09-22T08:58:22.026Z,101315.44
2022-09-22T09:02:41.633Z,101321.81
2022-09-22T09:06:04.981Z,101283.41
2022-09-22T09:09:32.003Z,101333.25
2022-09-22T09:16:13.601Z,101266.88
2022-09-22T09:19:06.291Z,101280.50
2022-09-22T09:21:46.346Z,101225.22
2022-09-22T09:27:55.909Z,101267.66
2022-09-22T09:30:40.720Z,101313.38
2022-09-22T09:33:17.681Z,101282.81
2022-09-22T09:35:50.288Z,101274.97
2022-09-22T09:38:19.766Z,101214.84
2022-09-22T09:40:54.400Z,101295.59
2022-09-22T09:43:23.733Z,101173.13
2022-09-22T09:46:04.033Z,101200.56
2022-09-22T09:48:40.180Z,101297.22
2022-09-22T09:51:14.209Z,101293.31
2022-09-22T09:53:44.752Z,101305.38
2022-09-22T09:56:24.017Z,101242.50
2022-09-22T09:59:17.073Z,101290.13
2022-09-22T10:01:48.607Z,101261.56
2022-09-22T10:04:29.484Z,101223.59
2022-09-22T10:07:11.438Z,101219.47
2022-09-22T10:09:40.583Z,101151.22
2022-09-22T10:12:23.501Z,101251.94
2022-09-22T10:14:52.970Z,101270.72
2022-09-22T10:17:25.112Z,101272.88
2022-09-22T10:19:52.992Z,101053.41
2022-09-22T10:22:27.465Z,101263.81
2022-09-22T10:24:59.080Z,101254.84
2022-09-22T10:27:28.481Z,101247.28
2022-09-22T10:30:18.034Z,101218.66
2022-09-22T10:33:06.202Z,101189.66
2022-09-22T10:35:36.056Z,101250.28
2022-09-22T10:38:09.929Z,101233.59
2022-09-22T10:40:41.700Z,101218.84
2022-09-22T10:43:21.319Z,101228.91
2022-09-22T10:46:01.913Z,101184.69
2022-09-22T10:48:39.335Z,101115.47
2022-09-22T10:51:14.593Z,101215.72
2022-09-22T10:54:12.387Z,101102.25
2022-09-22T10:56:44.610Z,100999.63
2022-09-22T10:59:40.489Z,101210.47
2022-09-22T11:02:38.571Z,101213.25
2022-09-22T11:05:44.073Z,101215.72
2022-09-22T11:08:31.987Z,101207.81
2022-09-22T11:11:27.007Z,101146.81
2022-09-22T11:14:11.853Z,101210.72
2022-09-22T11:17:02.088Z,101181.00
2022-09-22T11:19:58.711Z,101203.56
2022-09-22T11:23:08.681Z,101142.25
2022-09-22T11:25:50.877Z,101204.28
2022-09-22T11:28:34.556Z,101106.28
2022-09-22T11:31:02.882Z,101199.88
2022-09-22T11:33:54.140Z,101196.03
2022-09-22T11:36:28.131Z,101122.25
2022-09-22T11:39:21.650Z,101085.63
2022-09-22T11:42:01.143Z,101182.63
2022-09-22T11:44:37.046Z,101159.22
2022-09-22T11:47:22.395Z,101180.97
2022-09-22T11:50:04.851Z,101155.59
2022-09-22T11:52:49.861Z,101168.53
2022-09-22T11:55:29.400Z,101174.56
2022-09-22T11:58:01.386Z,101162.78
2022-09-22T12:03:41.710Z,101043.22
2022-09-22T12:06:13.266Z,101162.31
2022-09-22T12:08:46.932Z,101155.31
2022-09-22T12:11:20.302Z,101153.28
2022-09-22T12:13:51.145Z,101167.88
2022-09-22T12:16:26.879Z,101145.16
2022-09-22T12:19:15.766Z,101150.34
2022-09-22T12:21:58.824Z,100796.19
2022-09-22T12:24:29.506Z,101093.72
2022-09-22T12:26:58.976Z,101005.38
2022-09-22T12:29:30.372Z,101171.63
2022-09-22T12:31:59.943Z,100852.25
2022-09-22T12:34:30.285Z,101135.34
2022-09-22T12:37:00.846Z,100839.88
2022-09-22T12:39:31.901Z,100875.28
2022-09-22T12:42:04.463Z,100558.09
2022-09-22T12:44:36.680Z,100991.44
2022-09-22T12:47:15.047Z,101131.00
2022-09-22T12:49:50.444Z,100923.16
2022-09-22T12:52:59.312Z,101122.75
2022-09-22T12:55:42.474Z,101135.75
2022-09-22T12:58:46.764Z,101118.75
2022-09-22T13:01:36.475Z,100791.50
2022-09-22T13:04:17.376Z,101108.56
2022-09-22T13:06:55.329Z,100880.78
2022-09-22T13:09:35.411Z,100904.28
2022-09-22T13:12:29.218Z,101099.16
2022-09-22T13:15:19.950Z,100875.28
2022-09-22T13:17:51.961Z,101133.06
2022-09-22T13:20:29.593Z,100696.94
2022-09-22T13:23:05.852Z,100872.22
2022-09-22T13:25:35.445Z,101033.72
2022-09-22T13:28:14.230Z,101066.31
2022-09-22T13:30:46.757Z,101099.13
2022-09-22T13:33:23.509Z,101105.31
2022-09-22T13:36:05.017Z,101125.09
2022-09-22T13:38:38.272Z,100515.16
2022-09-22T13:41:12.299Z,101082.75
2022-09-22T13:43:43.679Z,101100.88
2022-09-22T13:46:22.527Z,101087.03
2022-09-22T13:48:53.236Z,100819.22
2022-09-22T13:51:22.339Z,101092.53
2022-09-22T13:53:53.107Z,100986.44
2022-09-22T13:56:23.458Z,100520.47
2022-09-22T13:58:54.467Z,100804.38
2022-09-22T14:01:26.885Z,100669.66
2022-09-22T14:03:56.470Z,101080.56
2022-09-22T14:06:27.496Z,100436.63
2022-09-22T14:08:56.452Z,100900.09
2022-09-22T14:11:27.709Z,100941.28
2022-09-22T14:14:00.783Z,101028.53
2022-09-22T14:16:36.788Z,100954.19
2022-09-22T14:19:08.157Z,100968.22
2022-09-22T14:21:44.879Z,100891.09
2022-09-22T14:24:15.410Z,100700.84
2022-09-22T14:26:47.520Z,100704.44
2022-09-22T14:29:19.728Z,100700.50
2022-09-22T14:31:53.626Z,101046.84
2022-09-22T14:34:26.485Z,100963.50
2022-09-22T14:36:56.207Z,100995.75
2022-09-22T14:39:31.931Z,100811.59
2022-09-22T14:42:09.492Z,101038.78
2022-09-22T14:44:46.152Z,100779.25
2022-09-22T14:47:24.242Z,101014.81
2022-09-22T14:50:18.725Z,100731.66
2022-09-22T14:52:56.345Z,101071.25
2022-09-22T14:55:31.399Z,100715.72
2022-09-22T14:58:04.385Z,100789.75
2022-09-22T15:00:50.869Z,100601.72
2022-09-22T15:03:27.363Z,100780.91
2022-09-22T15:05:56.680Z,100930.81
2022-09-22T15:08:28.926Z,101017.59
2022-09-22T15:10:58.142Z,101018.34
2022-09-22T15:13:32.247Z,101002.13
2022-09-22T15:16:00.290Z,101014.50
2022-09-22T15:18:31.063Z,101018.13
2022-09-22T15:21:03.810Z,100835.53
2022-09-22T15:23:35.655Z,100900.97
2022-09-22T15:26:05.655Z,100868.75
2022-09-22T15:28:37.871Z,100665.81
2022-09-22T15:31:06.636Z,100738.22
2022-09-22T15:33:35.827Z,100696.03
2022-09-22T15:36:10.292Z,100973.03
2022-09-22T15:38:39.256Z,101000.53
2022-09-22T15:41:12.020Z,100571.16
2022-09-22T15:43:40.956Z,100718.03
2022-09-22T15:46:26.644Z,101001.28
2022-09-22T15:49:00.586Z,101000.66
2022-09-22T15:51:30.367Z,100972.19
2022-09-22T15:53:58.703Z,100734.59
2022-09-22T15:56:29.992Z,100941.41
2022-09-22T15:59:00.942Z,100947.38
2022-09-22T16:01:30.166Z,100880.50
2022-09-22T16:04:01.897Z,100874.84
2022-09-22T16:06:29.902Z,100937.09
2022-09-22T16:08:58.531Z,100513.00
2022-09-22T16:11:30.781Z,100983.66
2022-09-22T16:14:03.609Z,100718.09
2022-09-22T16:16:32.891Z,100982.06
2022-09-22T16:19:02.816Z,100983.31
2022-09-22T16:21:33.058Z,100986.50
2022-09-22T16:24:03.971Z,100985.53
2022-09-22T16:26:33.359Z,100980.31
2022-09-22T16:29:01.724Z,100980.38
2022-09-22T16:31:30.512Z,100825.22
2022-09-22T16:34:01.546Z,100973.50
2022-09-22T16:36:32.950Z,100963.66
2022-09-22T16:39:01.396Z,100499.38
2022-09-22T16:41:32.070Z,100818.09
2022-09-22T16:44:01.411Z,100899.97
2022-09-22T16:46:31.448Z,100876.72
2022-09-22T16:49:04.005Z,100627.31
2022-09-22T16:51:36.298Z,100829.19
2022-09-22T16:54:05.915Z,100905.91
2022-09-22T16:56:36.382Z,100946.97
2022-09-22T16:59:08.707Z,101000.41
2022-09-22T17:01:38.387Z,100791.78
2022-09-22T17:04:08.385Z,100976.97
2022-09-22T17:06:40.676Z,100633.34
2022-09-22T17:09:10.761Z,100893.06
2022-09-22T17:11:40.395Z,100334.97
2022-09-22T17:14:12.577Z,100748.47
2022-09-22T17:16:42.407Z,100997.59
2022-09-22T17:19:12.924Z,100653.53
2022-09-22T17:21:43.004Z,100824.63
2022-09-22T17:24:11.132Z,100815.16
2022-09-22T17:26:41.774Z,100987.25
2022-09-22T17:29:11.006Z,100997.38
2022-09-22T17:31:40.977Z,100910.09
2022-09-22T17:34:10.820Z,100979.56
2022-09-22T17:36:42.537Z,100995.69
2022-09-22T17:39:12.519Z,100991.91
2022-09-22T17:41:45.617Z,100941.03
2022-09-22T17:44:16.997Z,100899.66
2022-09-22T17:46:58.950Z,100819.44
2022-09-22T17:49:44.378Z,100773.56
2022-09-22T17:52:34.268Z,100928.66
2022-09-22T17:55:11.259Z,100703.31
2022-09-22T18:26:24.249Z,100982.06
2022-09-22T18:32:20.718Z,100757.03
2022-09-22T18:34:56.954Z,100665.47
2022-09-22T18:37:32.554Z,100724.59
2022-09-22T18:47:22.037Z,100937.25
2022-09-22T18:52:49.337Z,100948.50
2022-09-22T18:55:19.873Z,100807.00
2022-09-22T19:01:20.660Z,101023.59
2022-09-22T19:03:55.266Z,101016.91
2022-09-22T19:06:26.559Z,101016.28
2022-09-22T19:09:00.134Z,101015.59
2022-09-22T19:11:44.715Z,101009.06
2022-09-22T19:14:18.607Z,101010.03
2022-09-22T19:21:15.551Z,100815.88
2022-09-22T19:31:22.753Z,100976.72
2022-09-22T19:33:55.633Z,101014.75
2022-09-22T19:37:15.159Z,100970.13
2022-09-22T19:40:18.608Z,101017.69
2022-09-22T19:42:53.049Z,101010.97
2022-09-22T19:45:27.030Z,101012.78
2022-09-22T19:48:04.130Z,101017.22
2022-09-22T19:50:32.785Z,100984.34
2022-09-22T19:53:03.768Z,100947.28
2022-09-22T19:55:32.887Z,101010.63
2022-09-22T19:58:01.261Z,101013.22
2022-09-22T20:00:30.672Z,100967.69
2022-09-22T20:03:01.089Z,101009.06
2022-09-22T20:05:36.872Z,101005.75
2022-09-22T20:08:08.127Z,100968.59
2022-09-22T20:10:37.169Z,101003.41
2022-09-22T20:13:32.095Z,101003.50
2022-09-22T20:16:08.028Z,101003.53
2022-09-22T20:18:41.450Z,101010.53
2022-09-22T20:21:15.135Z,100831.91
2022-09-22T20:27:48.759Z,100966.03
2022-09-22T20:30:19.448Z,100998.22
2022-09-22T20:36:39.017Z,101001.19
2022-09-22T20:41:58.579Z,100893.25
2022-09-22T20:44:40.740Z,100999.00
2022-09-22T20:47:17.938Z,100999.13
2022-09-22T20:49:51.802Z,100984.03
2022-09-22T20:52:33.659Z,101000.22
2022-09-22T20:55:06.250Z,100990.03
2022-09-22T20:57:37.012Z,100991.84
2022-09-22T21:01:13.564Z,100991.97
2022-09-22T21:04:05.349Z,100983.66
2022-09-22T21:06:56.655Z,100886.75
2022-09-22T21:10:04.238Z,100873.97
2022-09-22T21:12:33.201Z,100941.72
2022-09-22T21:18:26.700Z,100923.38
2022-09-22T21:20:57.600Z,100937.75
2022-09-22T21:23:26.819Z,100977.59
2022-09-22T21:26:06.259Z,100985.31
2022-09-22T21:28:35.087Z,100975.94
2022-09-22T21:31:05.819Z,100976.00
2022-09-22T21:33:35.448Z,100937.09
2022-09-22T21:36:08.662Z,100970.88
2022-09-22T21:38:41.018Z,100965.84
2022-09-22T21:41:14.164Z,100964.25
2022-09-22T21:43:44.348Z,100920.50
2022-09-22T21:46:14.756Z,100963.56
2022-09-22T21:53:49.875Z,100953.59
2022-09-22T21:56:30.932Z,100956.25
2022-09-22T21:59:04.155Z,100958.03
2022-09-22T22:15:11.852Z,100906.09
